Time;durP1;ratioP1;P1;durP2;ratioP2;P2;SDS_P1;SDS_P2;PMS_P1;PMS_P2;Temp;Humidity;BMP_temperature;BMP_pressure;BME280_temperature;BME280_humidity;BME280_pressure;Samples;Min_cycle;Max_cycle;Signal;HPM_P1;HPM_P2
2023/05/11 00:00:36;;;;;;;8.30;4.50;;;;;;;6.20;57.10;100572.70;105522;1257;61102;-81
2023/05/11 00:03:03;;;;;;;9.90;4.10;;;;;;;6.21;57.24;100575.14;105604;1261;74896;-80
2023/05/11 00:05:30;;;;;;;7.80;4.60;;;;;;;6.21;57.07;100575.64;106135;1263;68440;-77
2023/05/11 00:07:57;;;;;;;7.70;4.60;;;;;;;6.22;57.18;100575.78;105690;1256;74774;-77
2023/05/11 00:10:24;;;;;;;7.50;4.20;;;;;;;6.21;57.73;100576.00;105659;1257;61601;-77
2023/05/11 00:12:50;;;;;;;6.90;4.10;;;;;;;6.21;57.67;100574.98;105685;1257;61204;-79
2023/05/11 00:15:17;;;;;;;7.40;3.90;;;;;;;6.20;57.67;100577.27;105499;1257;75458;-79
2023/05/11 00:17:44;;;;;;;7.90;4.40;;;;;;;6.19;57.49;100572.79;105518;1257;72323;-78
2023/05/11 00:20:11;;;;;;;9.10;4.10;;;;;;;6.19;57.40;100575.61;105414;1259;72600;-79
2023/05/11 00:22:38;;;;;;;7.10;3.70;;;;;;;6.18;57.50;100571.28;105469;1262;59652;-79
2023/05/11 00:25:05;;;;;;;7.00;4.10;;;;;;;6.18;57.50;100570.95;105594;1258;62581;-79
2023/05/11 00:27:32;;;;;;;6.80;3.70;;;;;;;6.18;57.72;100571.68;105684;1259;74807;-78
2023/05/11 00:29:59;;;;;;;11.60;4.70;;;;;;;6.18;57.78;100571.35;105746;1256;71715;-81
2023/05/11 00:32:26;;;;;;;7.00;4.00;;;;;;;6.17;57.76;100573.82;105616;1256;73053;-79
2023/05/11 00:34:53;;;;;;;5.60;4.00;;;;;;;6.17;57.82;100569.82;105954;1256;61411;-78
2023/05/11 00:37:20;;;;;;;6.70;3.90;;;;;;;6.17;57.73;100570.90;105847;1258;61041;-76
2023/05/11 00:39:47;;;;;;;8.10;3.90;;;;;;;6.16;58.08;100570.94;106065;1256;73107;-78
2023/05/11 00:42:14;;;;;;;8.20;4.00;;;;;;;6.15;57.97;100570.52;105735;1256;71417;-77
2023/05/11 00:44:41;;;;;;;7.00;3.40;;;;;;;6.14;58.17;100568.48;105815;1257;74674;-78
2023/05/11 00:47:08;;;;;;;5.80;3.50;;;;;;;6.13;58.07;100569.45;105667;1257;61388;-79
2023/05/11 00:49:35;;;;;;;6.50;3.70;;;;;;;6.13;58.17;100571.92;105654;1260;61230;-77
2023/05/11 00:52:02;;;;;;;6.00;4.10;;;;;;;6.11;58.13;100570.60;105567;1256;71420;-76
2023/05/11 00:54:30;;;;;;;5.70;4.50;;;;;;;6.10;58.25;100568.94;105623;1256;72361;-74
2023/05/11 00:56:56;;;;;;;10.30;4.30;;;;;;;6.09;58.38;100570.61;105727;1256;74651;-76
2023/05/11 00:59:23;;;;;;;7.60;4.40;;;;;;;6.08;58.17;100572.12;105821;1262;60320;-77
2023/05/11 01:01:50;;;;;;;4.20;3.60;;;;;;;6.06;58.29;100574.13;105830;1256;61004;-75
2023/05/11 01:04:17;;;;;;;10.10;4.30;;;;;;;6.06;58.39;100572.73;105647;1257;75300;-79
2023/05/11 01:06:54;;;;;;;7.00;4.10;;;;;;;6.05;58.53;100570.86;105618;1257;72386;-78
2023/05/11 01:10:00;;;;;;;6.30;3.60;;;;;;;6.05;58.79;100572.81;105586;1259;73847;-79
2023/05/11 01:12:47;;;;;;;8.40;3.80;;;;;;;6.06;58.52;100574.69;105695;1257;60805;-77
2023/05/11 01:15:20;;;;;;;8.30;3.90;;;;;;;6.07;58.45;100572.71;105657;1257;59702;-77
2023/05/11 01:17:55;;;;;;;4.50;3.80;;;;;;;6.08;58.66;100571.20;105645;1262;74761;-75
2023/05/11 01:20:25;;;;;;;7.40;4.40;;;;;;;6.09;58.39;100568.27;105617;1260;72571;-75
2023/05/11 01:23:06;;;;;;;7.20;3.70;;;;;;;6.14;58.54;100569.34;105584;1260;71886;-77
2023/05/11 01:25:59;;;;;;;7.30;4.90;;;;;;;6.18;58.63;100576.78;105563;1258;61626;-77
2023/05/11 01:29:03;;;;;;;6.60;4.30;;;;;;;6.23;58.93;100578.70;105624;1256;59773;-77
2023/05/11 01:31:31;;;;;;;7.20;4.20;;;;;;;6.27;58.94;100575.17;105811;1259;74977;-77
2023/05/11 01:34:01;;;;;;;3.90;3.40;;;;;;;6.31;58.84;100578.34;105512;1257;72760;-74
2023/05/11 01:36:34;;;;;;;6.00;4.00;;;;;;;6.36;58.92;100578.88;105624;1261;73755;-75
2023/05/11 01:39:03;;;;;;;6.10;3.50;;;;;;;6.41;59.08;100579.90;105623;1258;60154;-77
2023/05/11 01:41:31;;;;;;;7.10;3.90;;;;;;;6.46;59.14;100583.56;105647;1256;59635;-75
2023/05/11 01:43:59;;;;;;;5.70;4.00;;;;;;;6.51;58.90;100579.63;105542;1257;73076;-77
2023/05/11 01:46:29;;;;;;;7.70;4.10;;;;;;;6.55;58.88;100579.00;105646;1262;71503;-78
2023/05/11 01:48:56;;;;;;;5.00;3.30;;;;;;;6.60;58.95;100578.05;105676;1258;74808;-75
2023/05/11 01:51:24;;;;;;;6.00;3.90;;;;;;;6.64;58.82;100578.56;105614;1264;60378;-78
2023/05/11 01:53:52;;;;;;;6.50;3.70;;;;;;;6.69;58.58;100576.77;106021;1256;60237;-77
2023/05/11 01:56:20;;;;;;;6.30;3.90;;;;;;;6.74;58.23;100574.84;105817;1260;75222;-76
2023/05/11 01:58:47;;;;;;;7.30;4.40;;;;;;;6.80;58.28;100579.60;106091;1254;70239;-77
2023/05/11 02:01:16;;;;;;;7.30;4.00;;;;;;;6.86;58.16;100580.88;105812;1259;71126;-77
2023/05/11 02:03:43;;;;;;;5.20;4.20;;;;;;;6.92;58.21;100578.20;106467;1260;60327;-77
2023/05/11 02:06:10;;;;;;;6.60;4.00;;;;;;;6.97;58.13;100579.02;106402;1253;61153;-77
2023/05/11 02:08:37;;;;;;;4.90;4.10;;;;;;;7.02;58.04;100585.10;106060;1253;74305;-76
2023/05/11 02:11:04;;;;;;;4.40;3.60;;;;;;;7.06;57.97;100584.55;106111;1256;71060;-78
2023/05/11 02:13:32;;;;;;;5.70;4.00;;;;;;;7.10;57.95;100586.73;105860;1254;74637;-76
2023/05/11 02:15:59;;;;;;;7.20;4.30;;;;;;;7.13;57.87;100586.13;105688;1256;59619;-78
2023/05/11 02:18:26;;;;;;;6.70;4.30;;;;;;;7.17;57.79;100588.30;105921;1257;60882;-78
2023/05/11 02:20:56;;;;;;;5.80;4.10;;;;;;;7.21;57.62;100586.91;105887;1253;75396;-78
2023/05/11 02:23:25;;;;;;;11.60;4.50;;;;;;;7.25;57.56;100587.45;105845;1253;72391;-76
2023/05/11 02:25:52;;;;;;;5.40;3.80;;;;;;;7.27;57.46;100589.19;105877;1259;74075;-77
2023/05/11 02:28:19;;;;;;;6.30;4.30;;;;;;;7.29;57.37;100592.20;105793;1253;60718;-77
2023/05/11 02:30:47;;;;;;;7.30;4.40;;;;;;;7.29;57.24;100591.30;105922;1253;62308;-75
2023/05/11 02:33:19;;;;;;;5.70;4.50;;;;;;;7.29;57.33;100592.89;106056;1253;75133;-77
2023/05/11 02:35:46;;;;;;;9.40;4.40;;;;;;;7.28;57.09;100591.77;105756;1260;71452;-79
2023/05/11 02:38:13;;;;;;;6.80;4.40;;;;;;;7.25;57.25;100594.30;106087;1260;72546;-78
2023/05/11 02:40:50;;;;;;;7.80;4.50;;;;;;;7.23;57.29;100598.84;105944;1253;60617;-81
2023/05/11 02:43:20;;;;;;;7.00;4.10;;;;;;;7.21;57.48;100599.39;105768;1253;61111;-76
2023/05/11 02:45:53;;;;;;;6.50;4.30;;;;;;;7.17;57.39;100598.81;105861;1253;75754;-77
2023/05/11 02:48:28;;;;;;;8.50;5.00;;;;;;;7.13;57.57;100601.09;105739;1260;72048;-79
2023/05/11 02:50:55;;;;;;;7.00;4.60;;;;;;;7.09;57.79;100601.92;106010;1253;73667;-79
2023/05/11 02:53:26;;;;;;;7.10;4.40;;;;;;;7.06;58.13;100602.67;105891;1258;60537;-80
2023/05/11 02:55:54;;;;;;;6.30;4.50;;;;;;;7.05;58.25;100605.23;106099;1254;60929;-77
2023/05/11 02:58:21;;;;;;;6.90;5.00;;;;;;;7.03;58.40;100604.36;106075;1254;74922;-81
2023/05/11 03:00:55;;;;;;;6.40;4.20;;;;;;;6.98;58.53;100604.37;106061;1255;71336;-78
2023/05/11 03:03:22;;;;;;;6.90;4.90;;;;;;;6.95;58.65;100603.77;106087;1254;73319;-81
2023/05/11 03:05:50;;;;;;;7.10;5.80;;;;;;;6.93;58.99;100604.84;106746;1253;60542;-79
2023/05/11 03:08:16;;;;;;;7.20;4.50;;;;;;;6.94;59.11;100607.77;106681;1253;60986;-78
2023/05/11 03:10:43;;;;;;;8.30;4.90;;;;;;;6.94;59.69;100613.95;105933;1260;75048;-76
2023/05/11 03:13:10;;;;;;;7.70;4.90;;;;;;;6.92;59.73;100613.70;105880;1253;68425;-77
2023/05/11 03:15:37;;;;;;;11.60;5.30;;;;;;;6.95;60.03;100615.06;105689;1256;74662;-79
2023/05/11 03:18:04;;;;;;;7.20;5.10;;;;;;;7.00;60.18;100613.98;105804;1256;60685;-77
2023/05/11 03:20:32;;;;;;;5.80;5.00;;;;;;;7.07;60.33;100617.46;105963;1253;62368;-79
2023/05/11 03:22:59;;;;;;;6.70;5.10;;;;;;;7.14;61.00;100620.38;106005;1253;74625;-77
2023/05/11 03:25:27;;;;;;;9.40;5.30;;;;;;;7.23;61.18;100621.79;105897;1253;72384;-79
2023/05/11 03:27:54;;;;;;;6.60;5.10;;;;;;;7.34;61.36;100618.61;106202;1259;73331;-79
2023/05/11 03:30:21;;;;;;;7.30;5.40;;;;;;;7.46;62.27;100622.89;105964;1253;61524;-79
2023/05/11 03:32:49;;;;;;;8.50;6.30;;;;;;;7.57;62.87;100620.76;106090;1253;61646;-80
2023/05/11 03:35:16;;;;;;;9.40;6.40;;;;;;;7.72;62.96;100622.91;106502;1254;74404;-78
2023/05/11 03:37:43;;;;;;;10.10;6.40;;;;;;;7.87;63.03;100620.05;107142;1253;72199;-79
2023/05/11 03:40:11;;;;;;;7.50;6.00;;;;;;;8.03;63.13;100622.05;106827;1254;74596;-77
2023/05/11 03:42:46;;;;;;;9.50;6.80;;;;;;;8.20;63.26;100623.23;106230;1253;61433;-79
2023/05/11 03:45:13;;;;;;;10.30;7.10;;;;;;;8.36;63.25;100629.84;106722;1254;60569;-76
2023/05/11 03:47:40;;;;;;;9.80;6.70;;;;;;;8.50;63.24;100630.73;107417;1254;72614;-77
2023/05/11 03:50:09;;;;;;;14.10;7.10;;;;;;;8.63;63.02;100631.58;107145;1256;70958;-78
2023/05/11 03:52:35;;;;;;;8.90;6.70;;;;;;;8.73;62.77;100633.55;107055;1253;74665;-78
2023/05/11 03:55:03;;;;;;;8.90;6.60;;;;;;;8.81;62.54;100632.48;107476;1253;60361;-79
2023/05/11 03:57:30;;;;;;;10.60;6.90;;;;;;;8.87;62.20;100636.02;107395;1253;60224;-80
2023/05/11 03:59:56;;;;;;;10.70;7.10;;;;;;;8.91;62.01;100641.27;107890;1254;76083;-76
2023/05/11 04:02:23;;;;;;;11.80;6.80;;;;;;;8.94;61.88;100646.36;106492;1254;70752;-77
2023/05/11 04:04:51;;;;;;;8.90;7.60;;;;;;;8.94;62.11;100647.75;106500;1252;73585;-76
2023/05/11 04:07:18;;;;;;;10.20;7.10;;;;;;;8.94;62.27;100650.58;105895;1257;60456;-76
2023/05/11 04:09:46;;;;;;;10.60;8.20;;;;;;;8.92;62.78;100650.91;106352;1253;61742;-76
2023/05/11 04:12:12;;;;;;;10.90;7.30;;;;;;;8.90;63.14;100652.05;106910;1253;75952;-77
2023/05/11 04:14:40;;;;;;;10.10;7.10;;;;;;;8.88;63.11;100654.19;106106;1253;72200;-77
2023/05/11 04:17:08;;;;;;;9.30;7.20;;;;;;;8.85;63.07;100655.45;106257;1257;72548;-75
2023/05/11 04:19:34;;;;;;;7.50;6.50;;;;;;;8.82;63.13;100655.84;106007;1256;60407;-73
2023/05/11 04:22:01;;;;;;;13.50;7.80;;;;;;;8.82;63.36;100656.36;105845;1253;62265;-72
2023/05/11 04:24:29;;;;;;;9.70;6.80;;;;;;;8.83;63.65;100663.20;105886;1253;74645;-74
2023/05/11 04:26:56;;;;;;;11.10;6.90;;;;;;;8.84;63.81;100660.84;106091;1253;70221;-74
2023/05/11 04:29:23;;;;;;;11.50;7.00;;;;;;;8.87;64.09;100665.56;106153;1259;73035;-73
2023/05/11 04:31:50;;;;;;;10.20;8.50;;;;;;;8.90;64.27;100664.06;106319;1258;60593;-73
2023/05/11 04:34:18;;;;;;;11.90;7.30;;;;;;;8.94;64.55;100669.48;106033;1258;60356;-72
2023/05/11 04:36:49;;;;;;;9.30;7.70;;;;;;;9.01;64.39;100670.66;106121;1254;74467;-73
2023/05/11 04:39:17;;;;;;;8.30;7.50;;;;;;;9.10;64.41;100671.85;106173;1254;69330;-73
2023/05/11 04:41:45;;;;;;;11.20;8.30;;;;;;;9.18;63.80;100676.17;106538;1258;73338;-76
2023/05/11 04:44:13;;;;;;;11.30;7.60;;;;;;;9.28;63.42;100681.55;106874;1256;61783;-74
2023/05/11 04:46:40;;;;;;;8.90;6.80;;;;;;;9.37;63.07;100677.85;106808;1253;60822;-74
2023/05/11 04:49:08;;;;;;;7.70;6.90;;;;;;;9.46;62.83;100670.70;106620;1254;74697;-73
2023/05/11 04:51:38;;;;;;;9.30;7.70;;;;;;;9.55;62.34;100667.10;106614;1253;71304;-74
2023/05/11 04:54:05;;;;;;;8.10;7.20;;;;;;;9.63;62.29;100668.31;106578;1253;73346;-73
2023/05/11 04:56:32;;;;;;;10.40;7.30;;;;;;;9.72;62.34;100669.98;106472;1253;62657;-72
2023/05/11 04:58:59;;;;;;;10.20;8.30;;;;;;;9.79;62.49;100673.44;106414;1253;62342;-72
2023/05/11 05:01:25;;;;;;;9.50;7.50;;;;;;;9.86;62.34;100673.45;106272;1252;74621;-73
2023/05/11 05:03:53;;;;;;;11.00;7.80;;;;;;;9.95;62.22;100669.09;106411;1253;72634;-73
2023/05/11 05:06:20;;;;;;;12.30;7.70;;;;;;;10.05;62.18;100669.94;107604;1253;73891;-73
2023/05/11 05:08:47;;;;;;;9.60;7.10;;;;;;;10.17;62.14;100676.14;106548;1253;60502;-74
2023/05/11 05:11:14;;;;;;;11.80;7.60;;;;;;;10.30;61.61;100674.33;106179;1254;61254;-73
2023/05/11 05:13:41;;;;;;;9.70;6.80;;;;;;;10.47;60.83;100673.73;106369;1253;75976;-73
2023/05/11 05:16:08;;;;;;;8.50;5.50;;;;;;;10.64;59.04;100678.17;106296;1253;72651;-72
2023/05/11 05:18:35;;;;;;;9.00;6.40;;;;;;;10.78;57.00;100681.58;106539;1253;73362;-73
2023/05/11 05:21:03;;;;;;;9.00;7.20;;;;;;;10.91;56.12;100682.30;106821;1257;60435;-74
2023/05/11 05:23:30;;;;;;;10.10;6.80;;;;;;;11.02;55.08;100682.11;106541;1253;60487;-72
2023/05/11 05:25:57;;;;;;;8.50;6.40;;;;;;;11.12;54.53;100680.94;106517;1253;74393;-73
2023/05/11 05:28:25;;;;;;;9.80;6.50;;;;;;;11.23;53.38;100682.41;106637;1253;70611;-75
2023/05/11 05:30:52;;;;;;;9.50;5.80;;;;;;;11.33;52.81;100676.83;106702;1253;72532;-73
2023/05/11 05:33:19;;;;;;;8.60;6.20;;;;;;;11.41;52.24;100679.17;106740;1253;60393;-73
2023/05/11 05:35:46;;;;;;;12.70;7.40;;;;;;;11.50;52.05;100678.50;106548;1257;61448;-73
2023/05/11 05:38:14;;;;;;;8.40;7.00;;;;;;;11.59;51.85;100680.28;106553;1253;74465;-71
2023/05/11 05:40:41;;;;;;;10.10;7.10;;;;;;;11.67;51.59;100683.79;106458;1253;69432;-74
2023/05/11 05:43:08;;;;;;;8.20;6.90;;;;;;;11.73;50.66;100681.05;106216;1256;73354;-74
2023/05/11 05:45:34;;;;;;;9.80;7.90;;;;;;;11.78;50.10;100681.42;106390;1254;60477;-73
2023/05/11 05:48:01;;;;;;;9.70;7.20;;;;;;;11.85;49.47;100677.90;106365;1259;60414;-71
2023/05/11 05:50:29;;;;;;;13.30;7.40;;;;;;;11.94;49.01;100681.45;106282;1253;75928;-72
2023/05/11 05:52:56;;;;;;;10.10;7.00;;;;;;;12.03;48.86;100681.67;106296;1253;72596;-73
2023/05/11 05:55:25;;;;;;;9.20;6.50;;;;;;;12.10;48.16;100680.55;108001;1253;74777;-69
2023/05/11 05:57:53;;;;;;;11.80;7.50;;;;;;;12.19;47.80;100680.19;108686;1253;61486;-71
2023/05/11 06:00:20;;;;;;;8.10;6.10;;;;;;;12.29;47.22;100678.15;108424;1253;61228;-72
2023/05/11 06:02:52;;;;;;;10.30;6.90;;;;;;;12.38;46.80;100680.61;107828;1253;72941;-72
2023/05/11 06:05:24;;;;;;;16.00;7.60;;;;;;;12.46;46.89;100679.80;108378;1253;72146;-72
2023/05/11 06:07:51;;;;;;;11.20;7.60;;;;;;;12.55;46.65;100680.91;109271;1253;70992;-70
2023/05/11 06:10:36;;;;;;;9.80;6.70;;;;;;;12.69;46.32;100680.27;108263;1257;61273;-71
2023/05/11 06:13:03;;;;;;;9.90;6.70;;;;;;;12.83;45.75;100679.83;107423;1258;62284;-73
2023/05/11 06:15:30;;;;;;;12.50;6.60;;;;;;;12.97;45.38;100680.14;108026;1253;76388;-71
2023/05/11 06:18:01;;;;;;;8.70;6.40;;;;;;;13.12;45.04;100678.23;107961;1253;71320;-70
2023/05/11 06:20:30;;;;;;;9.30;6.10;;;;;;;13.25;44.72;100675.98;107345;1261;72814;-72
2023/05/11 06:22:57;;;;;;;11.40;5.50;;;;;;;13.35;43.66;100675.66;107693;1253;60386;-70
2023/05/11 06:25:26;;;;;;;8.30;5.30;;;;;;;13.41;43.58;100674.67;108269;1254;61789;-72
2023/05/11 06:27:55;;;;;;;7.00;5.50;;;;;;;13.47;43.60;100671.58;109044;1256;75542;-71
2023/05/11 06:30:22;;;;;;;9.60;5.10;;;;;;;13.52;43.23;100672.05;108861;1254;71612;-71
2023/05/11 06:32:49;;;;;;;4.60;4.10;;;;;;;13.56;42.90;100670.23;108154;1253;71655;-72
2023/05/11 06:35:17;;;;;;;5.50;4.00;;;;;;;13.61;42.03;100675.08;108028;1256;61271;-72
2023/05/11 06:37:44;;;;;;;6.30;4.20;;;;;;;13.66;41.53;100671.70;108448;1253;61044;-72
2023/05/11 06:40:12;;;;;;;6.50;4.20;;;;;;;13.70;41.16;100672.08;108774;1254;73464;-71
2023/05/11 06:42:45;;;;;;;8.10;4.00;;;;;;;13.75;40.72;100674.75;108227;1253;68961;-72
2023/05/11 06:45:12;;;;;;;7.90;3.90;;;;;;;13.80;40.55;100674.05;108836;1253;73538;-71
2023/05/11 06:47:41;;;;;;;5.40;3.90;;;;;;;13.86;40.48;100675.48;108444;1253;61995;-72
2023/05/11 06:50:08;;;;;;;8.30;4.30;;;;;;;13.92;40.04;100674.18;109042;1253;61155;-71
2023/05/11 06:52:36;;;;;;;6.30;3.80;;;;;;;13.99;39.81;100673.58;108557;1253;76619;-72
2023/05/11 06:55:03;;;;;;;5.80;3.30;;;;;;;14.08;39.81;100674.21;108557;1253;70929;-70
2023/05/11 06:57:30;;;;;;;6.30;3.40;;;;;;;14.17;39.60;100674.71;108292;1253;73551;-72
2023/05/11 06:59:57;;;;;;;4.50;3.60;;;;;;;14.25;39.02;100670.71;107194;1258;61437;-73
2023/05/11 07:02:24;;;;;;;6.50;3.80;;;;;;;14.30;39.16;100672.81;107338;1253;62032;-71
2023/05/11 07:04:51;;;;;;;5.30;3.40;;;;;;;14.36;38.71;100670.41;107410;1253;74556;-72
2023/05/11 07:07:17;;;;;;;4.80;3.80;;;;;;;14.41;38.53;100674.56;107257;1253;71444;-73
2023/05/11 07:09:44;;;;;;;5.60;4.00;;;;;;;14.42;37.86;100673.52;107900;1253;73426;-71
2023/05/11 07:12:11;;;;;;;5.90;3.60;;;;;;;14.42;37.88;100670.19;108904;1253;61424;-73
2023/05/11 07:14:38;;;;;;;4.60;3.60;;;;;;;14.43;37.35;100668.80;108800;1253;59274;-72
2023/05/11 07:17:05;;;;;;;9.40;4.30;;;;;;;14.44;37.72;100671.15;108600;1254;74645;-74
2023/05/11 07:19:32;;;;;;;4.60;3.60;;;;;;;14.45;37.76;100671.45;108825;1258;71120;-72
2023/05/11 07:22:00;;;;;;;6.70;3.70;;;;;;;14.44;38.09;100672.73;108892;1253;73773;-72
2023/05/11 07:24:27;;;;;;;5.40;3.70;;;;;;;14.47;37.82;100676.49;109016;1253;59166;-73
2023/05/11 07:26:56;;;;;;;5.80;3.90;;;;;;;14.50;37.93;100673.48;108720;1253;60386;-75
2023/05/11 07:29:23;;;;;;;6.30;3.60;;;;;;;14.56;37.86;100671.77;108853;1253;74669;-70
2023/05/11 07:31:50;;;;;;;3.80;3.40;;;;;;;14.64;37.59;100671.10;108292;1255;72676;-71
2023/05/11 07:34:17;;;;;;;5.40;3.60;;;;;;;14.73;36.97;100669.02;109052;1253;75035;-71
2023/05/11 07:36:45;;;;;;;5.90;3.70;;;;;;;14.80;36.79;100670.04;109065;1258;61392;-74
2023/05/11 07:39:17;;;;;;;5.10;3.20;;;;;;;14.88;37.07;100667.36;108474;1257;61335;-72
2023/05/11 07:41:45;;;;;;;3.40;3.10;;;;;;;14.95;36.88;100665.30;108316;1253;75027;-74
2023/05/11 07:44:11;;;;;;;4.30;3.10;;;;;;;15.00;36.51;100667.76;108518;1257;70922;-75
2023/05/11 07:46:38;;;;;;;5.10;3.70;;;;;;;15.07;35.64;100668.35;108673;1253;73493;-71
2023/05/11 07:49:05;;;;;;;6.90;3.70;;;;;;;15.13;35.51;100666.62;108689;1252;61218;-72
2023/05/11 07:51:50;;;;;;;5.40;3.50;;;;;;;15.22;35.43;100666.73;108938;1254;61958;-72
2023/05/11 07:54:18;;;;;;;6.00;3.70;;;;;;;15.30;35.64;100660.98;108360;1256;74717;-72
2023/05/11 07:56:50;;;;;;;6.80;3.50;;;;;;;15.36;35.12;100659.59;108649;1253;72489;-71
2023/05/11 07:59:16;;;;;;;4.10;3.70;;;;;;;15.43;35.73;100655.47;108242;1253;73295;-72
2023/05/11 08:01:43;;;;;;;5.30;3.50;;;;;;;15.56;35.89;100648.69;108346;1253;62004;-73
2023/05/11 08:04:10;;;;;;;6.00;4.10;;;;;;;15.70;35.92;100646.91;106805;1258;60496;-71
2023/05/11 08:06:37;;;;;;;7.10;3.60;;;;;;;15.81;35.64;100640.20;108944;1253;74950;-73
2023/05/11 08:09:04;;;;;;;4.20;3.40;;;;;;;15.89;35.63;100643.25;109129;1253;71806;-72
2023/05/11 08:11:33;;;;;;;6.80;4.30;;;;;;;15.98;35.42;100642.79;109064;1253;73598;-73
2023/05/11 08:13:59;;;;;;;5.30;3.70;;;;;;;16.01;35.19;100633.60;108812;1254;60911;-71
2023/05/11 08:16:26;;;;;;;4.40;3.40;;;;;;;16.02;35.12;100639.25;109015;1253;61223;-72
2023/05/11 08:18:53;;;;;;;6.10;3.20;;;;;;;16.01;34.73;100640.45;109002;1253;74885;-73
2023/05/11 08:21:20;;;;;;;5.70;3.80;;;;;;;16.06;34.49;100639.59;108875;1253;71245;-72
2023/05/11 08:23:47;;;;;;;4.80;3.20;;;;;;;16.17;34.59;100639.02;108975;1253;73619;-72
2023/05/11 08:26:14;;;;;;;5.10;3.30;;;;;;;16.30;34.54;100639.61;108861;1253;59115;-72
2023/05/11 08:28:41;;;;;;;3.20;2.90;;;;;;;16.50;34.12;100644.03;108797;1253;61103;-71
2023/05/11 08:31:08;;;;;;;5.00;3.20;;;;;;;16.73;33.63;100641.42;108922;1253;74628;-73
2023/05/11 08:33:34;;;;;;;3.10;2.80;;;;;;;16.96;32.71;100641.79;109256;1254;71632;-70
2023/05/11 08:36:07;;;;;;;3.40;2.70;;;;;;;17.15;31.63;100635.87;109156;1253;71811;-75
2023/05/11 08:38:34;;;;;;;5.70;2.70;;;;;;;17.33;30.76;100633.19;109110;1253;61717;-71
2023/05/11 08:41:01;;;;;;;4.50;2.80;;;;;;;17.57;30.17;100627.91;108983;1257;61177;-71
2023/05/11 08:43:28;;;;;;;3.50;2.90;;;;;;;17.83;29.36;100626.14;108963;1253;74751;-72
2023/05/11 08:46:03;;;;;;;3.60;2.40;;;;;;;18.02;28.23;100626.30;108674;1253;69735;-73
2023/05/11 08:48:30;;;;;;;4.40;2.50;;;;;;;18.11;28.44;100626.38;108969;1254;74801;-71
2023/05/11 08:50:57;;;;;;;3.70;2.50;;;;;;;18.23;28.55;100626.27;108246;1253;61020;-70
2023/05/11 08:53:24;;;;;;;4.00;2.60;;;;;;;18.30;28.16;100632.37;106907;1260;61192;-71
2023/05/11 08:55:51;;;;;;;3.30;2.70;;;;;;;18.32;28.56;100631.52;107432;1253;73467;-71
2023/05/11 08:58:21;;;;;;;5.80;2.80;;;;;;;18.35;28.64;100635.52;106845;1261;69172;-70
2023/05/11 09:00:48;;;;;;;3.70;3.20;;;;;;;18.37;28.87;100638.09;106617;1254;73762;-73
2023/05/11 09:03:16;;;;;;;3.50;2.90;;;;;;;18.36;28.97;100637.66;107359;1254;60476;-73
2023/05/11 09:05:45;;;;;;;4.60;2.90;;;;;;;18.37;29.06;100638.86;108380;1253;61476;-72
2023/05/11 09:08:12;;;;;;;4.30;3.00;;;;;;;18.35;29.11;100638.73;108595;1256;74825;-72
2023/05/11 09:10:40;;;;;;;4.20;3.00;;;;;;;18.29;29.06;100638.91;108499;1253;71101;-73
2023/05/11 09:13:10;;;;;;;3.90;3.40;;;;;;;18.23;29.20;100637.58;108889;1253;73753;-72
2023/05/11 09:15:37;;;;;;;4.60;2.90;;;;;;;18.19;29.30;100637.34;109004;1254;61085;-73
2023/05/11 09:18:04;;;;;;;5.00;2.90;;;;;;;18.07;29.44;100637.05;108942;1253;61341;-72
2023/05/11 09:20:32;;;;;;;3.90;3.00;;;;;;;17.97;29.45;100635.19;108957;1253;74432;-72
2023/05/11 09:22:59;;;;;;;2.80;2.60;;;;;;;17.88;29.49;100636.20;109082;1253;69047;-74
2023/05/11 09:25:29;;;;;;;3.10;2.80;;;;;;;17.84;29.39;100631.94;108853;1253;70878;-73
2023/05/11 09:27:56;;;;;;;3.30;3.00;;;;;;;17.85;28.93;100630.70;108408;1253;61248;-73
2023/05/11 09:30:23;;;;;;;4.50;2.50;;;;;;;17.89;28.86;100628.40;108572;1253;61094;-73
2023/05/11 09:32:55;;;;;;;4.00;2.50;;;;;;;17.99;28.89;100625.33;108769;1253;76302;-74
2023/05/11 09:35:25;;;;;;;3.40;2.70;;;;;;;18.17;29.02;100620.24;109192;1253;69979;-72
2023/05/11 09:38:11;;;;;;;5.30;2.90;;;;;;;18.46;28.98;100617.85;108477;1253;74140;-70
2023/05/11 09:40:50;;;;;;;4.50;2.80;;;;;;;18.94;28.58;100619.04;108491;1253;59218;-73
2023/05/11 09:43:25;;;;;;;3.70;2.50;;;;;;;19.51;27.91;100616.98;108734;1253;61083;-73
2023/05/11 09:45:57;;;;;;;3.40;2.70;;;;;;;20.10;27.06;100609.59;108916;1253;74817;-74
2023/05/11 09:48:31;;;;;;;2.70;2.50;;;;;;;20.71;26.63;100610.38;108296;1253;72663;-75
2023/05/11 09:51:05;;;;;;;3.00;2.70;;;;;;;21.47;26.05;100602.90;108902;1255;75045;-71
2023/05/11 09:53:35;;;;;;;3.00;2.60;;;;;;;22.32;25.40;100599.08;108935;1258;59343;-71
2023/05/11 09:56:03;;;;;;;3.10;2.70;;;;;;;23.00;24.72;100597.35;108986;1253;60900;-72
2023/05/11 09:58:51;;;;;;;3.70;2.90;;;;;;;23.46;23.90;100595.10;108486;1253;74879;-72
2023/05/11 10:01:28;;;;;;;4.10;3.10;;;;;;;23.76;24.22;100583.32;108708;1254;71053;-74
2023/05/11 10:03:55;;;;;;;2.90;2.60;;;;;;;24.32;23.82;100589.11;108633;1253;73325;-71
2023/05/11 10:06:48;;;;;;;3.90;3.00;;;;;;;24.89;23.52;100589.27;108453;1253;60377;-72
2023/05/11 10:09:16;;;;;;;3.20;2.90;;;;;;;25.54;23.06;100584.56;108796;1253;62303;-72
2023/05/11 10:11:44;;;;;;;3.20;2.80;;;;;;;25.98;22.41;100580.11;109339;1253;74527;-72
2023/05/11 10:14:12;;;;;;;3.30;3.00;;;;;;;26.30;22.14;100578.16;109196;1253;71493;-72
2023/05/11 10:16:40;;;;;;;3.40;2.40;;;;;;;26.84;22.33;100574.36;107961;1254;73537;-73
2023/05/11 10:19:07;;;;;;;3.00;2.70;;;;;;;27.36;21.91;100576.53;107237;1253;62542;-72
2023/05/11 10:21:34;;;;;;;3.60;3.30;;;;;;;27.89;21.64;100570.02;107040;1258;61203;-73
2023/05/11 10:24:02;;;;;;;3.80;3.10;;;;;;;28.39;21.12;100572.05;108112;1253;73752;-73
2023/05/11 10:26:30;;;;;;;3.60;3.30;;;;;;;28.69;20.84;100561.25;108351;1253;72155;-74
2023/05/11 10:28:59;;;;;;;3.70;3.20;;;;;;;29.02;20.53;100565.59;108042;1253;73619;-71
2023/05/11 10:31:27;;;;;;;5.30;3.10;;;;;;;29.01;20.49;100567.13;107942;1254;61394;-72
2023/05/11 10:33:56;;;;;;;3.00;2.80;;;;;;;28.70;20.59;100564.43;108118;1253;60231;-72
2023/05/11 10:36:24;;;;;;;3.60;3.30;;;;;;;28.60;20.81;100561.22;107901;1253;75872;-72
2023/05/11 10:38:50;;;;;;;3.50;3.10;;;;;;;28.72;20.74;100559.52;107291;1258;71209;-72
2023/05/11 10:41:47;;;;;;;3.90;3.20;;;;;;;28.73;20.69;100564.38;108163;1259;73387;-74
2023/05/11 10:47:13;;;;;;;3.60;2.90;;;;;;;28.42;20.54;100551.72;105229;1292;600165;-72
2023/05/11 10:50:11;;;;;;;3.00;2.80;;;;;;;28.49;20.58;100544.61;108268;1267;61158;-74
2023/05/11 10:52:46;;;;;;;3.40;2.70;;;;;;;28.80;20.67;100545.48;108351;1269;58884;-74
2023/05/11 10:55:41;;;;;;;3.00;2.80;;;;;;;29.18;20.46;100554.40;108319;1267;71229;-75
2023/05/11 10:58:16;;;;;;;3.40;3.10;;;;;;;29.65;19.94;100549.48;107926;1267;71131;-72
2023/05/11 11:00:58;;;;;;;4.10;3.30;;;;;;;29.95;19.73;100547.64;108394;1256;160332;-73
2023/05/11 11:03:26;;;;;;;3.20;2.90;;;;;;;30.25;19.87;100542.73;108669;1256;61365;-71
2023/05/11 11:05:52;;;;;;;3.50;3.30;;;;;;;30.64;19.61;100544.03;107122;1257;59289;-71
2023/05/11 11:08:19;;;;;;;2.90;2.70;;;;;;;30.96;19.25;100544.70;108483;1257;74434;-71
2023/05/11 11:10:48;;;;;;;4.60;3.10;;;;;;;31.21;19.23;100548.91;109094;1256;71030;-70
2023/05/11 11:13:22;;;;;;;5.30;3.00;;;;;;;31.39;18.85;100545.34;108740;1256;73329;-71
2023/05/11 11:15:56;;;;;;;3.50;3.00;;;;;;;31.16;18.63;100540.87;109094;1257;59131;-71
2023/05/11 11:18:27;;;;;;;3.40;3.10;;;;;;;30.28;19.08;100536.57;108980;1256;61399;-71
2023/05/11 11:20:55;;;;;;;3.00;2.70;;;;;;;29.47;19.43;100536.47;109062;1256;73930;-72
2023/05/11 11:23:41;;;;;;;3.40;3.10;;;;;;;29.25;19.58;100535.31;108919;1257;69143;-72
2023/05/11 11:26:15;;;;;;;3.30;3.00;;;;;;;29.56;19.73;100532.36;108897;1257;73714;-72
2023/05/11 11:28:59;;;;;;;3.30;3.00;;;;;;;29.98;19.51;100528.30;108960;1258;60507;-70
2023/05/11 11:31:32;;;;;;;3.20;2.90;;;;;;;30.59;19.48;100526.48;108619;1257;58665;-71